Terminal Aerodrome Forecast
Issued by NWS

Home | Current Version | Previous Version | Text Only | Print | Product List | Glossary On
Versions: 1 2 3 4 5 6 7 8 9 10 11 12
992
FTUS45 KRIW 240529
TAFCPR
TAF
KCPR 240529Z 2406/2506 04011KT P6SM SCT250
     FM241200 06010KT P6SM SCT250
     FM242200 06012G18KT P6SM SCT060 SCT100
     FM250200 04015G25KT P6SM SCT050 BKN080=

USA.gov is the U.S. government's official web portal to all federal, state and local government web resources and services.